Time;durP1;ratioP1;P1;durP2;ratioP2;P2;SDS_P1;SDS_P2;PMS_P1;PMS_P2;Temp;Humidity;BMP_temperature;BMP_pressure;BME280_temperature;BME280_humidity;BME280_pressure;Samples;Min_cycle;Max_cycle;Signal;HPM_P1;HPM_P2
2023/08/01 00:02:02;;;;;;;1.80;1.10;;;;;;;16.25;100.00;97281.38;15292248;19;20014;-55
2023/08/01 00:07:29;;;;;;;1.65;1.20;;;;;;;16.21;100.00;97254.88;15295646;19;20114;-53
2023/08/01 00:12:56;;;;;;;2.35;1.30;;;;;;;16.19;100.00;97265.94;15286156;19;20081;-53
2023/08/01 00:18:24;;;;;;;2.30;1.70;;;;;;;16.10;100.00;97283.59;15292455;19;20165;-52
2023/08/01 00:23:48;;;;;;;1.85;1.48;;;;;;;16.07;100.00;97289.47;15284901;19;20031;-52
2023/08/01 00:29:20;;;;;;;2.00;1.50;;;;;;;16.05;100.00;97292.44;15282612;19;20022;-52
2023/08/01 00:34:48;;;;;;;1.85;1.40;;;;;;;16.04;100.00;97281.81;15286204;19;20026;-51
2023/08/01 00:40:16;;;;;;;2.67;1.42;;;;;;;16.01;100.00;97278.47;15284276;19;20086;-52
2023/08/01 00:45:42;;;;;;;1.58;1.42;;;;;;;16.02;100.00;97268.44;15288157;19;20010;-51
2023/08/01 00:51:14;;;;;;;4.22;1.67;;;;;;;16.01;100.00;97243.16;15292216;19;20014;-52
2023/08/01 00:56:40;;;;;;;2.03;1.30;;;;;;;16.04;100.00;97238.34;15287302;19;20025;-52
2023/08/01 01:02:05;;;;;;;2.33;1.45;;;;;;;16.04;100.00;97227.47;15278658;19;20554;-53
2023/08/01 01:07:34;;;;;;;3.72;1.73;;;;;;;15.99;100.00;97199.09;15288933;19;20014;-51
2023/08/01 01:12:59;;;;;;;2.20;1.52;;;;;;;15.99;100.00;97193.66;15282611;19;20346;-53
2023/08/01 01:18:24;;;;;;;2.08;1.50;;;;;;;15.95;100.00;97184.28;15281605;19;20022;-54
2023/08/01 01:23:52;;;;;;;1.50;1.30;;;;;;;15.96;100.00;97174.28;15293263;19;20082;-56
2023/08/01 01:29:25;;;;;;;3.00;1.42;;;;;;;15.95;100.00;97159.03;15294518;19;20046;-51
2023/08/01 01:34:50;;;;;;;1.80;1.25;;;;;;;15.93;100.00;97148.41;15293044;19;20025;-52
2023/08/01 01:40:19;;;;;;;2.25;1.10;;;;;;;15.95;100.00;97129.16;15297216;19;20082;-57
2023/08/01 01:45:44;;;;;;;1.70;1.10;;;;;;;15.99;100.00;97114.88;15299492;19;20085;-52
2023/08/01 01:51:09;;;;;;;1.30;1.00;;;;;;;16.03;100.00;97096.25;15306375;19;20043;-51
2023/08/01 01:56:37;;;;;;;1.50;0.90;;;;;;;16.08;100.00;97073.81;15299193;19;20032;-53
2023/08/01 02:02:03;;;;;;;1.02;0.90;;;;;;;16.11;100.00;97062.50;15294971;19;20019;-52
2023/08/01 02:07:28;;;;;;;1.80;0.93;;;;;;;16.09;100.00;97056.47;15296678;19;20425;-54
2023/08/01 02:12:56;;;;;;;1.30;0.73;;;;;;;16.08;100.00;97025.75;15293634;19;20473;-53
2023/08/01 02:18:21;;;;;;;2.35;0.90;;;;;;;16.11;100.00;97029.91;15304438;19;20038;-51
2023/08/01 02:23:45;;;;;;;1.95;0.60;;;;;;;16.15;100.00;97017.53;15289475;19;20011;-51
2023/08/01 02:29:19;;;;;;;1.17;0.70;;;;;;;16.16;100.00;96994.72;15288968;19;20462;-50
2023/08/01 02:34:44;;;;;;;0.70;0.70;;;;;;;16.19;100.00;96988.81;15291844;19;20021;-51
2023/08/01 02:40:10;;;;;;;0.70;0.70;;;;;;;16.17;100.00;96975.47;15293408;19;20094;-51
2023/08/01 02:45:38;;;;;;;0.50;0.50;;;;;;;16.17;100.00;96961.03;15293182;19;20036;-52
2023/08/01 02:51:02;;;;;;;1.00;0.65;;;;;;;16.18;100.00;96987.16;15294252;19;20015;-54
2023/08/01 02:56:27;;;;;;;0.60;0.55;;;;;;;16.15;100.00;96988.44;15294557;19;20019;-52
2023/08/01 03:01:55;;;;;;;0.73;0.68;;;;;;;16.14;100.00;96985.97;15290019;19;20652;-51
2023/08/01 03:07:20;;;;;;;1.63;0.70;;;;;;;16.07;100.00;96999.66;15299407;19;20014;-51
2023/08/01 03:12:45;;;;;;;0.75;0.47;;;;;;;16.04;100.00;97007.44;15287230;19;20029;-50
2023/08/01 03:18:13;;;;;;;0.38;0.38;;;;;;;16.00;100.00;97028.78;15298966;19;20014;-52
2023/08/01 03:23:38;;;;;;;0.98;0.63;;;;;;;15.96;100.00;97033.84;15288261;19;20510;-50
2023/08/01 03:29:02;;;;;;;0.85;0.80;;;;;;;15.95;100.00;97051.22;15285625;19;20049;-52
2023/08/01 03:34:30;;;;;;;0.82;0.50;;;;;;;15.94;100.00;97046.03;15289954;19;20081;-50
2023/08/01 03:39:55;;;;;;;1.10;0.60;;;;;;;15.91;100.00;97052.75;15288186;19;20094;-50
2023/08/01 03:45:21;;;;;;;1.02;0.68;;;;;;;15.88;100.00;97055.91;15283505;19;20025;-52
2023/08/01 03:50:48;;;;;;;1.08;0.68;;;;;;;15.88;100.00;97058.63;15292449;19;20403;-50
2023/08/01 03:56:13;;;;;;;1.13;0.60;;;;;;;15.88;100.00;97058.63;15294166;19;20086;-50
2023/08/01 04:01:37;;;;;;;0.52;0.50;;;;;;;15.90;100.00;97042.94;15289706;19;20018;-51
2023/08/01 04:07:05;;;;;;;0.80;0.57;;;;;;;15.93;100.00;97045.19;15291096;19;20482;-49
2023/08/01 04:12:29;;;;;;;0.60;0.50;;;;;;;15.92;100.00;97032.69;15284573;19;20067;-52
2023/08/01 04:17:54;;;;;;;1.95;0.60;;;;;;;15.91;100.00;97033.72;15292369;19;20014;-53
2023/08/01 04:23:21;;;;;;;0.68;0.50;;;;;;;15.89;100.00;97027.69;15286445;19;20035;-51
2023/08/01 04:28:56;;;;;;;0.77;0.50;;;;;;;15.86;100.00;97033.59;15282603;19;20464;-52
2023/08/01 04:34:20;;;;;;;0.57;0.57;;;;;;;15.84;100.00;97035.66;15286615;19;20022;-55
2023/08/01 04:39:48;;;;;;;2.10;0.88;;;;;;;15.80;100.00;97045.34;15285509;19;20015;-55
2023/08/01 04:45:14;;;;;;;4.22;0.90;;;;;;;15.75;100.00;97056.03;15286797;19;20010;-53
2023/08/01 04:50:40;;;;;;;2.70;0.88;;;;;;;15.72;100.00;97066.31;15286121;19;20358;-53
2023/08/01 04:56:08;;;;;;;3.25;0.70;;;;;;;15.70;100.00;97065.69;15288156;19;20082;-56
2023/08/01 05:01:33;;;;;;;2.17;0.90;;;;;;;15.68;100.00;97081.41;15285396;19;20017;-51
2023/08/01 05:06:57;;;;;;;2.80;0.90;;;;;;;15.68;100.00;97088.72;15291606;19;20637;-51
2023/08/01 05:12:25;;;;;;;0.95;0.65;;;;;;;15.69;100.00;97088.50;15287777;19;20027;-54
2023/08/01 05:17:49;;;;;;;2.63;0.80;;;;;;;15.71;100.00;97086.34;15293134;19;20039;-52
2023/08/01 05:23:14;;;;;;;3.03;0.80;;;;;;;15.74;100.00;97089.69;15284948;19;20033;-51
2023/08/01 05:28:48;;;;;;;1.58;0.70;;;;;;;15.77;100.00;97090.06;15283483;19;20391;-52
2023/08/01 05:34:13;;;;;;;6.82;1.00;;;;;;;15.77;100.00;97110.97;15282874;19;20018;-53
2023/08/01 05:39:38;;;;;;;5.00;0.90;;;;;;;15.76;100.00;97101.97;15285413;19;20086;-54
2023/08/01 05:45:06;;;;;;;3.13;0.90;;;;;;;15.77;100.00;97124.53;15283902;19;20018;-53
2023/08/01 05:50:30;;;;;;;1.67;0.70;;;;;;;15.77;100.00;97133.50;15287422;19;20010;-57
2023/08/01 05:55:55;;;;;;;0.82;0.60;;;;;;;15.81;100.00;97139.31;15280448;19;20471;-57
2023/08/01 06:01:24;;;;;;;1.40;0.60;;;;;;;15.83;100.00;97148.06;15282098;19;20077;-56
2023/08/01 06:06:50;;;;;;;1.98;0.50;;;;;;;15.82;100.00;97151.81;15285886;19;20342;-52
2023/08/01 06:12:16;;;;;;;1.85;0.60;;;;;;;15.84;100.00;97150.59;15291063;19;20025;-54
2023/08/01 06:17:44;;;;;;;1.50;0.43;;;;;;;15.85;100.00;97146.81;15304398;19;20530;-55
2023/08/01 06:23:09;;;;;;;0.98;0.60;;;;;;;15.86;100.00;97143.06;15300858;19;20464;-56
2023/08/01 06:28:40;;;;;;;4.47;0.80;;;;;;;15.88;100.00;97134.66;15294526;19;20025;-55
2023/08/01 06:34:09;;;;;;;1.67;0.63;;;;;;;15.88;100.00;97137.38;15291326;19;20484;-52
2023/08/01 06:39:34;;;;;;;0.93;0.50;;;;;;;15.89;100.00;97128.19;15295293;19;20038;-56
2023/08/01 06:44:59;;;;;;;1.35;0.60;;;;;;;15.90;100.00;97154.28;15294530;19;20884;-56
2023/08/01 06:50:26;;;;;;;2.08;0.63;;;;;;;15.88;100.00;97159.09;15291027;19;20369;-55
2023/08/01 06:55:51;;;;;;;1.10;0.68;;;;;;;15.88;100.00;97148.25;15292868;19;20019;-54
2023/08/01 07:01:16;;;;;;;1.10;0.50;;;;;;;15.85;100.00;97129.69;15299180;19;20462;-55
2023/08/01 07:06:43;;;;;;;3.75;0.45;;;;;;;15.78;100.00;97118.06;15294923;19;20011;-52
2023/08/01 07:12:08;;;;;;;2.55;0.50;;;;;;;15.77;100.00;97117.19;15287541;19;20027;-54
2023/08/01 07:17:32;;;;;;;0.52;0.40;;;;;;;15.77;100.00;97119.91;15300529;19;20085;-53
2023/08/01 07:23:00;;;;;;;1.13;0.50;;;;;;;15.79;100.00;97087.94;15297086;19;20010;-56
2023/08/01 07:28:24;;;;;;;1.00;0.50;;;;;;;15.82;100.00;97105.66;15286545;19;20030;-55
2023/08/01 07:33:50;;;;;;;1.33;0.50;;;;;;;15.81;100.00;97123.84;15289093;19;20472;-53
2023/08/01 07:39:17;;;;;;;1.27;0.40;;;;;;;15.88;100.00;97087.69;15291302;19;20015;-54
2023/08/01 07:44:42;;;;;;;0.30;0.30;;;;;;;15.96;100.00;97125.38;15291194;19;20106;-53
2023/08/01 07:50:07;;;;;;;0.32;0.30;;;;;;;16.13;100.00;97120.97;15290334;19;20010;-55
2023/08/01 07:55:36;;;;;;;1.20;0.40;;;;;;;16.32;100.00;97127.19;15289159;19;20018;-57
2023/08/01 08:01:06;;;;;;;0.35;0.25;;;;;;;16.54;100.00;97137.56;15282961;19;20007;-53
2023/08/01 08:06:31;;;;;;;2.33;0.40;;;;;;;16.66;100.00;97128.59;15292311;19;20010;-56
2023/08/01 08:11:59;;;;;;;0.45;0.40;;;;;;;16.73;100.00;97099.44;15286072;19;20018;-55
2023/08/01 08:17:24;;;;;;;1.40;0.30;;;;;;;16.75;100.00;97111.72;15297434;19;20355;-56
2023/08/01 08:22:48;;;;;;;2.78;0.40;;;;;;;16.76;100.00;97090.78;15295338;19;20014;-55
2023/08/01 08:28:23;;;;;;;0.85;0.50;;;;;;;16.84;100.00;97066.00;15284811;19;20024;-52
2023/08/01 08:33:48;;;;;;;0.95;0.50;;;;;;;16.89;100.00;97070.72;15287010;19;20018;-55
2023/08/01 08:39:13;;;;;;;0.75;0.30;;;;;;;16.90;100.00;97035.09;15285887;19;20015;-55
2023/08/01 08:44:45;;;;;;;0.68;0.47;;;;;;;16.92;100.00;96992.19;15287824;19;20349;-57
2023/08/01 08:50:11;;;;;;;1.25;0.60;;;;;;;16.93;100.00;96991.13;15286541;19;20026;-51
2023/08/01 08:55:35;;;;;;;0.50;0.38;;;;;;;16.98;100.00;97025.00;15288971;19;20014;-55
2023/08/01 09:01:04;;;;;;;0.77;0.43;;;;;;;17.05;100.00;97033.84;15285076;19;20086;-51
2023/08/01 09:06:33;;;;;;;0.70;0.35;;;;;;;17.05;100.00;96993.03;15279913;19;20041;-55
2023/08/01 09:11:59;;;;;;;1.23;0.45;;;;;;;17.13;100.00;96978.25;15278766;19;20018;-55
2023/08/01 09:17:27;;;;;;;0.70;0.35;;;;;;;17.13;100.00;96975.53;15293893;19;20029;-52
2023/08/01 09:22:53;;;;;;;1.50;0.60;;;;;;;17.13;100.00;96968.19;15289518;19;20029;-54
2023/08/01 09:28:28;;;;;;;1.50;0.65;;;;;;;17.06;100.00;96991.97;15281650;19;20026;-54
2023/08/01 09:33:55;;;;;;;4.80;0.90;;;;;;;16.64;100.00;97066.31;15282336;19;20019;-54
2023/08/01 09:39:26;;;;;;;1.27;0.35;;;;;;;16.20;100.00;97061.09;15280853;19;20405;-53
2023/08/01 09:44:51;;;;;;;0.80;0.50;;;;;;;15.86;100.00;97077.03;15292464;19;20014;-55
2023/08/01 09:50:19;;;;;;;0.65;0.60;;;;;;;15.60;100.00;97080.88;15298576;19;20018;-58
2023/08/01 09:55:48;;;;;;;1.10;0.80;;;;;;;15.51;100.00;97124.63;15298638;19;20024;-54
2023/08/01 10:01:14;;;;;;;1.50;1.40;;;;;;;15.26;100.00;97094.78;15297990;19;20014;-52
2023/08/01 10:06:45;;;;;;;2.50;2.30;;;;;;;15.26;100.00;97121.94;15297095;19;20353;-57
2023/08/01 10:12:12;;;;;;;2.67;2.28;;;;;;;15.25;100.00;97103.97;15293548;19;20015;-58
2023/08/01 10:17:38;;;;;;;2.50;2.28;;;;;;;15.39;100.00;97091.94;15304966;19;20035;-56
2023/08/01 10:23:08;;;;;;;2.60;2.42;;;;;;;15.62;100.00;97104.03;15300965;19;20031;-56
2023/08/01 10:28:36;;;;;;;2.25;2.10;;;;;;;15.77;100.00;97073.75;15292370;19;20022;-55
2023/08/01 10:34:01;;;;;;;3.70;2.20;;;;;;;15.95;100.00;97086.50;15294113;19;20018;-54
2023/08/01 10:39:29;;;;;;;3.53;1.80;;;;;;;16.00;100.00;97040.50;15295568;19;20037;-57
2023/08/01 10:44:55;;;;;;;1.80;1.60;;;;;;;16.06;100.00;96999.88;15292325;19;20387;-55
2023/08/01 10:50:21;;;;;;;1.70;1.60;;;;;;;16.27;100.00;96976.78;15295498;19;20021;-57
2023/08/01 10:55:53;;;;;;;2.28;1.60;;;;;;;16.43;100.00;96962.50;15294990;19;20038;-56
2023/08/01 11:01:18;;;;;;;2.38;1.30;;;;;;;16.68;100.00;96917.13;15294903;19;20015;-56
2023/08/01 11:06:53;;;;;;;2.92;1.70;;;;;;;16.77;100.00;96837.66;15295274;19;20018;-54
2023/08/01 11:12:20;;;;;;;2.30;1.52;;;;;;;16.85;100.00;96877.25;15291774;19;20016;-56
2023/08/01 11:17:46;;;;;;;1.77;1.60;;;;;;;17.17;100.00;96882.28;15298127;19;20090;-55
2023/08/01 11:23:11;;;;;;;1.70;1.40;;;;;;;17.27;100.00;96878.09;15299983;19;20015;-55
2023/08/01 11:28:38;;;;;;;4.85;1.90;;;;;;;17.35;100.00;96837.72;15289162;19;20091;-55
2023/08/01 11:34:08;;;;;;;2.35;1.40;;;;;;;17.46;100.00;96838.75;15288472;19;20015;-55
2023/08/01 11:39:33;;;;;;;1.30;1.20;;;;;;;17.81;100.00;96884.03;15291529;19;20082;-53
2023/08/01 11:45:10;;;;;;;1.00;0.90;;;;;;;18.02;100.00;96849.78;15288905;19;20018;-57
2023/08/01 11:50:35;;;;;;;1.38;0.90;;;;;;;18.27;100.00;96821.25;15288852;19;20535;-57
2023/08/01 11:56:00;;;;;;;1.67;0.70;;;;;;;18.41;100.00;96812.72;15288885;19;20026;-58
2023/08/01 12:01:29;;;;;;;0.70;0.63;;;;;;;18.57;100.00;96819.22;15289156;19;20487;-57
2023/08/01 12:06:53;;;;;;;2.47;0.80;;;;;;;18.74;100.00;96816.44;15287657;19;20740;-58
2023/08/01 12:12:19;;;;;;;0.70;0.70;;;;;;;19.04;100.00;96805.09;15285890;19;20017;-58
2023/08/01 12:17:46;;;;;;;1.00;0.70;;;;;;;19.24;100.00;96781.81;15296650;19;20010;-56
2023/08/01 12:23:11;;;;;;;1.27;0.70;;;;;;;19.17;100.00;96781.22;15291456;19;20042;-55
2023/08/01 12:28:35;;;;;;;1.40;0.77;;;;;;;19.35;100.00;96775.38;15284494;19;20021;-56
2023/08/01 12:34:03;;;;;;;0.88;0.70;;;;;;;19.55;100.00;96768.47;15288869;19;20015;-54
2023/08/01 12:39:27;;;;;;;1.38;0.50;;;;;;;19.60;100.00;96760.28;15287626;19;20213;-57
2023/08/01 12:44:52;;;;;;;3.08;0.80;;;;;;;19.69;100.00;96757.91;15287920;19;20015;-55
2023/08/01 12:50:20;;;;;;;1.17;0.65;;;;;;;19.69;100.00;96766.94;15285092;19;20043;-57
2023/08/01 12:55:44;;;;;;;1.52;0.80;;;;;;;19.52;100.00;96771.69;15290837;19;20018;-57
2023/08/01 13:01:09;;;;;;;1.23;0.73;;;;;;;19.50;100.00;96774.72;15286173;19;20035;-55
2023/08/01 13:06:36;;;;;;;1.90;0.80;;;;;;;19.37;100.00;96795.06;15289234;19;20375;-57
2023/08/01 13:12:01;;;;;;;1.63;0.70;;;;;;;19.20;100.00;96800.63;15284371;19;20356;-57
2023/08/01 13:17:26;;;;;;;1.55;0.60;;;;;;;19.03;100.00;96810.81;15291039;19;20025;-56
2023/08/01 13:22:54;;;;;;;1.38;0.70;;;;;;;18.84;100.00;96830.19;15282536;19;20026;-55
2023/08/01 13:28:26;;;;;;;0.85;0.70;;;;;;;18.08;100.00;96856.13;15281266;19;20332;-56
2023/08/01 13:33:51;;;;;;;1.65;0.73;;;;;;;18.12;100.00;96879.09;15285803;19;20020;-56
2023/08/01 13:39:18;;;;;;;2.42;0.70;;;;;;;18.31;100.00;96870.66;15284047;19;20014;-57
2023/08/01 13:44:43;;;;;;;1.10;0.85;;;;;;;18.72;100.00;96860.34;15283963;19;20693;-55
2023/08/01 13:50:08;;;;;;;2.22;0.85;;;;;;;19.04;100.00;96840.56;15282284;19;20018;-57
2023/08/01 13:55:37;;;;;;;1.65;0.77;;;;;;;19.27;100.00;96822.25;15282278;19;20019;-56
2023/08/01 14:01:02;;;;;;;1.25;0.70;;;;;;;19.65;100.00;96823.19;15283497;19;20045;-51
2023/08/01 14:06:27;;;;;;;1.00;0.70;;;;;;;20.01;100.00;96823.50;15283456;19;20015;-53
2023/08/01 14:11:54;;;;;;;1.25;0.65;;;;;;;20.25;100.00;96831.34;15275250;19;20604;-50
2023/08/01 14:17:20;;;;;;;1.50;0.70;;;;;;;19.91;100.00;96831.63;15280985;19;20043;-48
2023/08/01 14:22:45;;;;;;;2.65;0.63;;;;;;;19.82;100.00;96838.59;15278784;19;20850;-49
2023/08/01 14:28:13;;;;;;;1.40;0.80;;;;;;;19.88;100.00;96845.81;15286699;19;20018;-49
2023/08/01 14:33:40;;;;;;;1.73;0.65;;;;;;;19.79;100.00;96856.34;15299909;19;20019;-50
2023/08/01 14:39:06;;;;;;;2.38;0.95;;;;;;;19.70;100.00;96850.53;15294893;19;20475;-51
2023/08/01 14:44:42;;;;;;;0.82;0.73;;;;;;;19.69;100.00;96859.00;15297164;19;20018;-50
2023/08/01 14:50:09;;;;;;;1.33;0.90;;;;;;;19.62;100.00;96856.47;15295569;19;20021;-51
2023/08/01 14:55:34;;;;;;;1.48;0.70;;;;;;;19.82;100.00;96866.78;15298072;19;20105;-51
2023/08/01 15:01:03;;;;;;;1.30;0.70;;;;;;;20.20;100.00;96864.09;15289119;19;20033;-50
2023/08/01 15:06:28;;;;;;;1.27;0.80;;;;;;;20.41;100.00;96864.22;15298905;19;20017;-54
2023/08/01 15:11:54;;;;;;;1.35;0.77;;;;;;;20.44;100.00;96867.28;15289244;19;20493;-53
2023/08/01 15:17:21;;;;;;;0.90;0.75;;;;;;;20.35;100.00;96857.91;15299283;19;20022;-50
2023/08/01 15:22:46;;;;;;;1.45;0.70;;;;;;;20.77;100.00;96856.25;15288074;19;20018;-50
2023/08/01 15:28:10;;;;;;;1.17;0.70;;;;;;;21.16;100.00;96863.31;15300263;19;20031;-51
2023/08/01 15:33:39;;;;;;;0.65;0.60;;;;;;;21.29;100.00;96838.13;15290287;19;20427;-52
2023/08/01 15:39:05;;;;;;;0.40;0.40;;;;;;;21.47;100.00;96842.28;15290880;19;20077;-52
2023/08/01 15:44:30;;;;;;;0.90;0.57;;;;;;;21.30;100.00;96847.97;15287658;19;20022;-50
2023/08/01 15:49:57;;;;;;;1.00;0.50;;;;;;;21.47;100.00;96872.41;15293737;19;20035;-50
2023/08/01 15:55:22;;;;;;;0.60;0.50;;;;;;;21.55;100.00;96869.16;15287868;19;20009;-51
2023/08/01 16:00:47;;;;;;;0.40;0.40;;;;;;;21.35;100.00;96858.13;15286422;19;20021;-51
2023/08/01 16:06:15;;;;;;;0.60;0.50;;;;;;;21.37;100.00;96873.22;15292452;19;20470;-51
2023/08/01 16:11:39;;;;;;;0.93;0.60;;;;;;;21.44;100.00;96866.66;15285787;19;20022;-50
2023/08/01 16:17:05;;;;;;;0.47;0.47;;;;;;;21.38;100.00;96880.34;15295393;19;20024;-53
2023/08/01 16:22:32;;;;;;;2.88;0.50;;;;;;;21.43;100.00;96887.75;15296135;19;20019;-53
2023/08/01 16:27:57;;;;;;;0.85;0.50;;;;;;;20.97;100.00;96891.13;15294969;19;20055;-53
2023/08/01 16:33:21;;;;;;;1.13;0.70;;;;;;;20.86;100.00;96898.47;15293174;19;20706;-52
2023/08/01 16:38:49;;;;;;;1.00;0.70;;;;;;;20.32;100.00;96892.06;15284659;19;20031;-53
2023/08/01 16:44:14;;;;;;;0.98;0.70;;;;;;;20.01;100.00;96908.25;15284495;19;20022;-52
2023/08/01 16:49:39;;;;;;;0.82;0.60;;;;;;;19.94;100.00;96918.53;15288904;19;20053;-52
2023/08/01 16:55:06;;;;;;;0.57;0.57;;;;;;;19.83;100.00;96923.06;15282315;19;20019;-51
2023/08/01 17:00:31;;;;;;;1.35;0.60;;;;;;;19.59;100.00;96929.91;15284151;19;20609;-55
2023/08/01 17:05:56;;;;;;;1.00;0.70;;;;;;;19.47;100.00;96946.44;15289126;19;20038;-52
2023/08/01 17:11:23;;;;;;;1.92;0.80;;;;;;;19.53;100.00;96973.53;15282505;19;20594;-50
2023/08/01 17:16:48;;;;;;;0.73;0.50;;;;;;;19.36;100.00;96967.34;14782758;19;10000106;-53
2023/08/01 17:22:13;;;;;;;0.80;0.57;;;;;;;19.09;100.00;96973.53;15290938;19;20416;-51
2023/08/01 17:27:40;;;;;;;1.50;0.70;;;;;;;18.91;100.00;96958.25;15291030;19;20015;-53
2023/08/01 17:33:05;;;;;;;1.38;0.70;;;;;;;18.63;100.00;96970.97;15289175;19;20126;-51
2023/08/01 17:38:29;;;;;;;1.52;0.70;;;;;;;18.27;100.00;97017.53;15282451;19;20371;-51
2023/08/01 17:43:59;;;;;;;0.90;0.55;;;;;;;17.83;100.00;97028.13;15279675;19;20078;-51
2023/08/01 17:49:23;;;;;;;1.30;0.70;;;;;;;17.03;100.00;97052.28;15286034;19;20025;-53
2023/08/01 17:54:48;;;;;;;0.85;0.50;;;;;;;16.54;100.00;97052.47;15281294;19;20015;-51
2023/08/01 18:00:17;;;;;;;0.93;0.50;;;;;;;16.06;100.00;97075.94;15280363;19;20025;-53
2023/08/01 18:05:43;;;;;;;0.60;0.40;;;;;;;15.79;100.00;97066.22;15296005;19;20015;-51
2023/08/01 18:11:08;;;;;;;1.30;0.45;;;;;;;15.63;100.00;97070.38;15293252;19;20086;-51
2023/08/01 18:16:35;;;;;;;0.68;0.45;;;;;;;15.44;100.00;97066.03;15290055;19;20610;-53
2023/08/01 18:22:02;;;;;;;0.70;0.55;;;;;;;15.38;100.00;97075.91;15303117;19;20363;-51
2023/08/01 18:27:27;;;;;;;0.60;0.50;;;;;;;15.36;100.00;97086.97;15302306;19;20022;-50
2023/08/01 18:32:54;;;;;;;1.10;0.68;;;;;;;15.40;100.00;97099.03;15300545;19;20025;-51
2023/08/01 18:38:19;;;;;;;0.85;0.52;;;;;;;15.47;100.00;97104.41;15304045;19;20074;-50
2023/08/01 18:43:44;;;;;;;0.38;0.38;;;;;;;15.49;100.00;97121.28;15290071;19;20094;-53
2023/08/01 18:49:12;;;;;;;0.70;0.50;;;;;;;15.44;100.00;97118.41;15295890;19;20064;-52
2023/08/01 18:54:37;;;;;;;0.60;0.52;;;;;;;15.42;100.00;97134.09;15289908;19;20437;-50
2023/08/01 19:00:02;;;;;;;0.70;0.50;;;;;;;15.35;100.00;97136.03;15295735;19;20428;-52
2023/08/01 19:05:30;;;;;;;0.82;0.60;;;;;;;15.29;100.00;97143.19;15293663;19;20028;-52
2023/08/01 19:11:02;;;;;;;1.65;0.60;;;;;;;15.25;100.00;97158.25;15299639;19;20027;-51
2023/08/01 19:16:27;;;;;;;1.45;0.47;;;;;;;15.21;100.00;97162.47;15291982;19;20018;-51
2023/08/01 19:21:54;;;;;;;1.80;0.40;;;;;;;15.18;100.00;97171.06;15293563;19;20085;-53
2023/08/01 19:27:19;;;;;;;1.08;0.60;;;;;;;15.16;100.00;97175.84;15295900;19;20089;-52
2023/08/01 19:32:43;;;;;;;0.93;0.47;;;;;;;15.15;100.00;97198.59;15287961;19;20025;-51
2023/08/01 19:38:11;;;;;;;1.10;0.57;;;;;;;15.12;100.00;97204.47;15298672;19;20018;-52
2023/08/01 19:43:36;;;;;;;1.60;0.57;;;;;;;15.10;100.00;97221.81;15287521;19;20022;-53
2023/08/01 19:49:01;;;;;;;0.80;0.60;;;;;;;15.10;100.00;97237.25;15289558;19;20025;-53
2023/08/01 19:54:30;;;;;;;0.73;0.57;;;;;;;15.09;100.00;97249.16;15290037;19;20018;-50
2023/08/01 19:59:55;;;;;;;1.45;0.70;;;;;;;15.09;100.00;97263.56;15295958;19;20617;-51
2023/08/01 20:05:22;;;;;;;0.70;0.57;;;;;;;15.07;100.00;97265.66;15297770;19;20471;-50
2023/08/01 20:10:49;;;;;;;3.25;0.60;;;;;;;15.04;100.00;97257.94;15286094;19;20082;-51
2023/08/01 20:16:14;;;;;;;1.42;0.70;;;;;;;15.06;100.00;97257.72;15279386;19;20011;-47
2023/08/01 20:21:39;;;;;;;1.27;0.70;;;;;;;15.04;100.00;97257.13;15286796;19;20078;-51
2023/08/01 20:27:06;;;;;;;1.33;0.70;;;;;;;15.04;100.00;97266.09;15294257;19;20011;-51
2023/08/01 20:32:32;;;;;;;2.08;0.77;;;;;;;15.02;100.00;97265.47;15294049;19;20022;-53
2023/08/01 20:37:57;;;;;;;1.92;0.80;;;;;;;15.20;100.00;97224.03;15267862;19;20094;-53
2023/08/01 20:43:28;;;;;;;1.40;0.57;;;;;;;15.32;100.00;97226.88;15285582;19;20010;-51
2023/08/01 20:48:52;;;;;;;0.50;0.47;;;;;;;15.39;100.00;97227.63;15287702;19;20418;-52
2023/08/01 20:54:17;;;;;;;1.35;0.70;;;;;;;15.39;100.00;97234.94;15279627;19;20106;-53
2023/08/01 20:59:44;;;;;;;2.55;0.55;;;;;;;15.34;100.00;97249.19;15286188;19;20092;-51
2023/08/01 21:05:10;;;;;;;0.95;0.70;;;;;;;15.28;100.00;97270.94;15285886;19;20104;-49
2023/08/01 21:10:37;;;;;;;1.80;0.63;;;;;;;15.21;100.00;97276.41;15286611;19;20015;-52
2023/08/01 21:16:19;;;;;;;2.50;0.70;;;;;;;15.15;100.00;97282.69;15288969;19;20094;-49
2023/08/01 21:21:44;;;;;;;1.15;0.65;;;;;;;15.10;100.00;97291.50;15292309;19;20021;-50
2023/08/01 21:27:08;;;;;;;1.42;0.60;;;;;;;15.06;100.00;97301.13;15287508;19;20082;-51
2023/08/01 21:32:35;;;;;;;1.52;0.60;;;;;;;15.04;100.00;97287.78;15290292;19;20025;-50
2023/08/01 21:38:00;;;;;;;2.50;0.60;;;;;;;15.04;100.00;97282.34;15298074;19;20014;-52
2023/08/01 21:43:25;;;;;;;1.15;0.60;;;;;;;15.00;100.00;97286.53;15296424;19;20015;-49
2023/08/01 21:48:52;;;;;;;1.63;0.60;;;;;;;14.98;100.00;97294.09;15301136;19;20027;-51
2023/08/01 21:54:17;;;;;;;1.30;0.60;;;;;;;14.97;100.00;97289.72;15295851;19;20018;-53
2023/08/01 21:59:42;;;;;;;0.57;0.40;;;;;;;14.99;100.00;97287.63;15294746;19;20371;-52
2023/08/01 22:05:11;;;;;;;1.15;0.50;;;;;;;14.98;100.00;97283.25;15296541;19;20035;-49
2023/08/01 22:10:36;;;;;;;1.00;0.50;;;;;;;14.96;100.00;97285.34;15298314;19;20082;-52
2023/08/01 22:16:08;;;;;;;0.40;0.40;;;;;;;14.91;100.00;97288.69;15297358;19;20435;-48
2023/08/01 22:21:36;;;;;;;1.10;0.60;;;;;;;14.88;100.00;97296.41;15304113;19;20025;-52
2023/08/01 22:27:00;;;;;;;3.60;0.70;;;;;;;14.84;100.00;97296.03;15304841;19;20347;-49
2023/08/01 22:32:25;;;;;;;2.75;0.50;;;;;;;14.81;100.00;97291.06;15298548;19;20094;-47
2023/08/01 22:37:52;;;;;;;4.10;0.60;;;;;;;14.78;100.00;97294.19;15300882;19;20408;-48
2023/08/01 22:43:18;;;;;;;1.40;0.60;;;;;;;14.74;100.00;97304.63;15294595;19;20015;-51
2023/08/01 22:48:42;;;;;;;1.08;0.50;;;;;;;14.73;100.00;97294.00;15296077;19;20064;-48
2023/08/01 22:54:10;;;;;;;1.48;0.50;;;;;;;14.72;100.00;97305.88;15291827;19;20015;-47
2023/08/01 22:59:34;;;;;;;1.77;0.68;;;;;;;14.71;100.00;97323.19;15296212;19;20059;-53
2023/08/01 23:04:59;;;;;;;0.80;0.50;;;;;;;14.68;100.00;97329.06;15288403;19;20015;-50
2023/08/01 23:10:26;;;;;;;2.78;0.57;;;;;;;14.68;100.00;97331.78;15293664;19;20597;-50
2023/08/01 23:16:08;;;;;;;0.57;0.50;;;;;;;14.67;100.00;97336.34;15296763;19;20013;-50
2023/08/01 23:21:34;;;;;;;1.85;0.73;;;;;;;14.68;100.00;97324.47;15300617;19;20015;-49
2023/08/01 23:27:02;;;;;;;1.13;0.50;;;;;;;14.67;100.00;97330.94;15300197;19;20010;-51
2023/08/01 23:32:27;;;;;;;1.13;0.60;;;;;;;14.67;100.00;97330.06;15297309;19;20014;-49
2023/08/01 23:37:51;;;;;;;1.00;0.60;;;;;;;14.64;100.00;97342.19;15289703;19;20017;-50
2023/08/01 23:43:19;;;;;;;1.80;0.60;;;;;;;14.64;100.00;97342.19;15289353;19;20032;-51
2023/08/01 23:48:43;;;;;;;1.27;0.70;;;;;;;14.63;100.00;97326.97;15292113;19;20014;-51
2023/08/01 23:54:08;;;;;;;0.93;0.50;;;;;;;14.66;100.00;97323.81;15287398;19;20016;-50
2023/08/01 23:59:36;;;;;;;1.48;0.60;;;;;;;14.72;100.00;97323.00;15289785;19;20017;-53
